sensor_id;sensor_type;location;lat;lon;timestamp;pressure;altitude;pressure_sealevel;temperature;humidity
73105;BME280;61296;50.526;30.792;2023-03-01T00:03:32;100140.66;;;-3.70;78.45
73105;BME280;61296;50.526;30.792;2023-03-01T00:18:51;100130.94;;;-3.86;79.17
73105;BME280;61296;50.526;30.792;2023-03-01T00:34:12;100084.72;;;-3.78;79.29
73105;BME280;61296;50.526;30.792;2023-03-01T00:49:31;100090.66;;;-3.71;79.57
73105;BME280;61296;50.526;30.792;2023-03-01T01:04:51;99992.81;;;-4.11;79.24
73105;BME280;61296;50.526;30.792;2023-03-01T01:20:11;100058.94;;;-3.59;79.43
73105;BME280;61296;50.526;30.792;2023-03-01T01:35:31;100046.03;;;-3.57;79.08
73105;BME280;61296;50.526;30.792;2023-03-01T01:50:55;100001.97;;;-3.81;79.85
73105;BME280;61296;50.526;30.792;2023-03-01T02:06:27;99854.75;;;-4.66;80.42
73105;BME280;61296;50.526;30.792;2023-03-01T02:22:19;99976.16;;;-3.87;80.98
73105;BME280;61296;50.526;30.792;2023-03-01T02:37:42;99959.50;;;-3.89;81.34
73105;BME280;61296;50.526;30.792;2023-03-01T02:53:11;99820.66;;;-4.50;81.11
73105;BME280;61296;50.526;30.792;2023-03-01T03:08:34;99824.41;;;-4.41;80.87
73105;BME280;61296;50.526;30.792;2023-03-01T03:23:53;99935.81;;;-3.62;81.05
73105;BME280;61296;50.526;30.792;2023-03-01T03:39:12;99915.97;;;-3.81;81.37
73105;BME280;61296;50.526;30.792;2023-03-01T03:54:31;99911.63;;;-3.67;81.76
73105;BME280;61296;50.526;30.792;2023-03-01T04:09:51;99917.53;;;-3.65;82.00
73105;BME280;61296;50.526;30.792;2023-03-01T04:25:10;99754.91;;;-4.47;82.50
73105;BME280;61296;50.526;30.792;2023-03-01T04:40:32;99831.38;;;-4.19;83.24
73105;BME280;61296;50.526;30.792;2023-03-01T04:55:54;99860.34;;;-3.91;83.10
73105;BME280;61296;50.526;30.792;2023-03-01T05:11:13;99905.66;;;-3.33;83.94
73105;BME280;61296;50.526;30.792;2023-03-01T05:26:32;99878.78;;;-3.43;84.81
73105;BME280;61296;50.526;30.792;2023-03-01T05:41:56;99830.22;;;-3.72;84.88
73105;BME280;61296;50.526;30.792;2023-03-01T05:57:17;99897.41;;;-3.03;84.61
73105;BME280;61296;50.526;30.792;2023-03-01T06:12:37;99856.28;;;-3.08;83.97
73105;BME280;61296;50.526;30.792;2023-03-01T06:27:56;99841.75;;;-3.07;84.07
73105;BME280;61296;50.526;30.792;2023-03-01T06:43:16;99859.16;;;-2.89;84.33
73105;BME280;61296;50.526;30.792;2023-03-01T06:58:35;99779.81;;;-2.97;84.53
73105;BME280;61296;50.526;30.792;2023-03-01T07:13:54;99853.78;;;-2.21;83.92
73105;BME280;61296;50.526;30.792;2023-03-01T07:29:14;99938.56;;;-1.46;83.90
73105;BME280;61296;50.526;30.792;2023-03-01T07:44:34;99887.78;;;-1.67;83.46
73105;BME280;61296;50.526;30.792;2023-03-01T07:59:53;99883.44;;;-1.39;82.84
73105;BME280;61296;50.526;30.792;2023-03-01T08:15:13;99901.47;;;-1.11;82.48
73105;BME280;61296;50.526;30.792;2023-03-01T08:30:32;99850.03;;;-1.01;81.81
73105;BME280;61296;50.526;30.792;2023-03-01T08:45:51;99815.75;;;-1.00;80.99
73105;BME280;61296;50.526;30.792;2023-03-01T09:01:13;99931.56;;;0.09;79.18
73105;BME280;61296;50.526;30.792;2023-03-01T09:16:34;99927.50;;;0.12;78.97
73105;BME280;61296;50.526;30.792;2023-03-01T09:31:54;99964.25;;;0.45;78.03
73105;BME280;61296;50.526;30.792;2023-03-01T09:47:19;99969.13;;;0.76;76.86
73105;BME280;61296;50.526;30.792;2023-03-01T10:02:49;99969.91;;;0.90;76.14
73105;BME280;61296;50.526;30.792;2023-03-01T10:18:25;99799.66;;;-0.08;75.55
73105;BME280;61296;50.526;30.792;2023-03-01T10:33:46;99856.69;;;0.23;76.44
73105;BME280;61296;50.526;30.792;2023-03-01T10:49:19;99947.38;;;0.95;76.52
73105;BME280;61296;50.526;30.792;2023-03-01T11:04:39;99837.66;;;0.15;77.09
73105;BME280;61296;50.526;30.792;2023-03-01T11:35:55;99924.06;;;0.94;76.87
73105;BME280;61296;50.526;30.792;2023-03-01T11:51:23;99827.06;;;0.46;76.78
73105;BME280;61296;50.526;30.792;2023-03-01T12:38:33;99965.78;;;1.34;78.02
73105;BME280;61296;50.526;30.792;2023-03-01T12:54:27;99908.75;;;0.89;78.59
73105;BME280;61296;50.526;30.792;2023-03-01T13:25:18;99925.06;;;1.11;78.61
73105;BME280;61296;50.526;30.792;2023-03-01T13:56:16;99909.53;;;1.17;76.86
73105;BME280;61296;50.526;30.792;2023-03-01T14:27:15;99988.16;;;1.39;71.40
73105;BME280;61296;50.526;30.792;2023-03-01T14:42:36;99930.78;;;1.24;70.52
73105;BME280;61296;50.526;30.792;2023-03-01T14:57:57;99904.09;;;1.03;69.72
73105;BME280;61296;50.526;30.792;2023-03-01T15:13:25;99974.03;;;1.29;69.57
73105;BME280;61296;50.526;30.792;2023-03-01T15:28:50;99969.81;;;1.36;70.43
73105;BME280;61296;50.526;30.792;2023-03-01T15:44:24;99900.41;;;0.58;71.28
73105;BME280;61296;50.526;30.792;2023-03-01T15:59:45;99909.53;;;0.35;72.08
73105;BME280;61296;50.526;30.792;2023-03-01T16:15:13;99945.66;;;0.25;72.95
73105;BME280;61296;50.526;30.792;2023-03-01T16:30:46;99913.63;;;-0.52;73.79
73105;BME280;61296;50.526;30.792;2023-03-01T16:46:27;99925.91;;;-0.83;75.19
73105;BME280;61296;50.526;30.792;2023-03-01T17:01:48;99950.53;;;-0.85;75.39
73105;BME280;61296;50.526;30.792;2023-03-01T17:17:19;99863.41;;;-1.57;75.68
73105;BME280;61296;50.526;30.792;2023-03-01T17:32:39;100008.28;;;-0.81;76.84
73105;BME280;61296;50.526;30.792;2023-03-01T17:47:59;99999.91;;;-1.03;76.76
73105;BME280;61296;50.526;30.792;2023-03-01T18:03:22;100017.44;;;-1.06;76.41
73105;BME280;61296;50.526;30.792;2023-03-01T18:18:46;99988.16;;;-1.47;77.03
73105;BME280;61296;50.526;30.792;2023-03-01T18:34:05;99991.22;;;-1.53;77.27
73105;BME280;61296;50.526;30.792;2023-03-01T18:49:29;100034.00;;;-1.41;77.29
73105;BME280;61296;50.526;30.792;2023-03-01T19:04:49;100072.25;;;-1.34;77.20
73105;BME280;61296;50.526;30.792;2023-03-01T19:20:10;99963.38;;;-2.12;77.10
73105;BME280;61296;50.526;30.792;2023-03-01T19:35:29;99992.19;;;-2.07;77.08
73105;BME280;61296;50.526;30.792;2023-03-01T19:50:51;99989.09;;;-2.29;76.90
73105;BME280;61296;50.526;30.792;2023-03-01T20:06:20;100065.31;;;-1.80;76.70
73105;BME280;61296;50.526;30.792;2023-03-01T20:21:40;99978.66;;;-2.41;76.03
73105;BME280;61296;50.526;30.792;2023-03-01T20:37:03;100041.69;;;-1.93;74.96
73105;BME280;61296;50.526;30.792;2023-03-01T20:52:23;100050.19;;;-1.76;74.35
73105;BME280;61296;50.526;30.792;2023-03-01T21:07:42;99921.69;;;-2.58;74.01
73105;BME280;61296;50.526;30.792;2023-03-01T21:23:02;100036.44;;;-1.74;74.18
73105;BME280;61296;50.526;30.792;2023-03-01T21:38:21;100051.47;;;-1.68;74.58
73105;BME280;61296;50.526;30.792;2023-03-01T21:53:41;100033.16;;;-1.66;74.96
73105;BME280;61296;50.526;30.792;2023-03-01T22:09:07;100036.91;;;-1.33;75.03
73105;BME280;61296;50.526;30.792;2023-03-01T22:24:27;99963.25;;;-1.62;74.49
73105;BME280;61296;50.526;30.792;2023-03-01T22:39:46;99996.84;;;-1.21;73.88
73105;BME280;61296;50.526;30.792;2023-03-01T22:55:06;99999.81;;;-1.22;74.42
73105;BME280;61296;50.526;30.792;2023-03-01T23:10:26;99911.22;;;-1.63;74.21
73105;BME280;61296;50.526;30.792;2023-03-01T23:25:56;99924.38;;;-1.56;74.56
73105;BME280;61296;50.526;30.792;2023-03-01T23:41:19;99929.25;;;-1.34;74.51
73105;BME280;61296;50.526;30.792;2023-03-01T23:56:40;99896.13;;;-1.64;75.58
